Solviken — LAJC6 — position and weather

sailwx.info

Track history (hours):
 
Tides and Currents Weather Stations Pressure Air Temp Water Temp Dewpoint Dewpoint Depression Visibility Wind Speed Wind Dir Waves Ship Positions

Solviken

Last reported at 2018-Jan-21 10:30 UTC. Time now 2018-Jan-21 10:40 UTC.
Position N 47°18' W 002°06'.

Length 249 m; draft 14 m.

Type: Tanker. MMSI: 258682000.

Date/timePositionNaut miles runAvg speedWind from/ knotsBaromVisibWave heightAir tempDewpointWater temp
2018-Jan-21 10:30N 47°18' W 002°06'0 0.0
2018-Jan-21 10:00N 47°18' W 002°06'0 0.0
2018-Jan-21 09:30N 47°18' W 002°06'0 0.0
2018-Jan-21 08:57N 47°18' W 002°06'0 0.0
2018-Jan-21 08:30N 47°18' W 002°06'0 0.0
2018-Jan-21 08:00N 47°18' W 002°06'0 0.0
2018-Jan-21 07:27N 47°18' W 002°06'0 0.0
2018-Jan-21 07:00N 47°18' W 002°06'0 0.2
2018-Jan-21 06:30N 47°18' W 002°06'1 2.6
2018-Jan-21 06:00N 47°18' W 002°08'4 8.7
2018-Jan-21 05:30N 47°15' W 002°13'611.3
2018-Jan-21 05:00N 47°11' W 002°18'4 8.7
2018-Jan-21 04:30N 47°07' W 002°23'3 5.3
2018-Jan-21 04:00N 47°06' W 002°26'4 7.6
2018-Jan-21 03:30N 47°04' W 002°30'4 8.6
2018-Jan-21 03:00N 47°03' W 002°36'3 5.7
2018-Jan-21 02:30N 47°01' W 002°40'611.8
2018-Jan-21 02:00N 47°02' W 002°48'3 1.0
2018-Jan-20 23:00N 46°59' W 002°50'0 0.8
2018-Jan-20 22:22N 46°59' W 002°50'9 1.2
2018-Jan-20 15:12N 47°02' W 002°38'2 7.4
2018-Jan-20 14:59N 47°01' W 002°40'812.9
2018-Jan-20 14:20N 47°04' W 002°51'413.3
2018-Jan-20 14:00N 47°05' W 002°57'713.4
2018-Jan-20 13:31N 47°08' W 003°06'713.3
2018-Jan-20 13:01N 47°10' W 003°15'713.2
2018-Jan-20 12:30N 47°13' W 003°24'713.1
2018-Jan-20 12:00N 47°15' W 003°34'613.0
2018-Jan-20 11:31N 47°17' W 003°42'712.9
2018-Jan-20 11:00N 47°20' W 003°51'712.9
2018-Jan-20 10:28N 47°22' W 004°01'4113.2
2018-Jan-20 07:24N 47°38' W 004°57'613.3
2018-Jan-20 06:58N 47°41' W 005°03'613.6
2018-Jan-20 06:30N 47°46' W 005°09'141 8.8
2018-Jan-19 14:31N 49°49' W 003°26'014.5
2018-Jan-19 14:30N 49°49' W 003°26'713.5
2018-Jan-19 14:00N 49°52' W 003°17'1014.2
2018-Jan-19 13:17N 49°57' W 003°03'414.1
2018-Jan-19 13:01N 49°59' W 002°57'713.6
2018-Jan-19 12:29N 50°01' W 002°47'713.0
2018-Jan-19 11:58N 50°03' W 002°37'612.2
2018-Jan-19 11:26N 50°05' W 002°27'8211.5
2018-Jan-19 04:18N 50°27' W 000°24'414.6
2018-Jan-19 04:00N 50°28' W 000°17'714.4
2018-Jan-19 03:30N 50°30' W 000°06'714.1
2018-Jan-19 03:00N 50°32' E 000°04'713.6
2018-Jan-19 02:31N 50°34' E 000°15'713.3
2018-Jan-19 02:00N 50°36' E 000°25'612.9
2018-Jan-19 01:31N 50°38' E 000°34'612.6
2018-Jan-19 01:00N 50°41' E 000°43'612.2
2018-Jan-19 00:31N 50°45' E 000°50'611.8
2018-Jan-19 00:00N 50°48' E 000°58'611.8
2018-Jan-18 23:31N 50°52' E 001°05'612.1
2018-Jan-18 23:00N 50°56' E 001°12'612.6
2018-Jan-18 22:30N 51°00' E 001°20'713.9
2018-Jan-18 22:00N 51°04' E 001°29'815.0
2018-Jan-18 21:30N 51°09' E 001°38'815.5
2018-Jan-18 21:00N 51°15' E 001°46'815.8
2018-Jan-18 20:31N 51°22' E 001°52'714.9
2018-Jan-18 20:00N 51°28' E 001°58'714.3
2018-Jan-18 19:31N 51°34' E 002°05'714.1
2018-Jan-18 19:00N 51°39' E 002°13'  
2018-Jan-12 14:59N 60°09' E 028°38'3 5.4
2018-Jan-12 14:30N 60°08' E 028°33'3 6.1
2018-Jan-12 14:00N 60°05' E 028°32'5 9.3
2018-Jan-12 13:30N 60°00' E 028°29'1 0.9
2018-Jan-12 12:58N 60°00' E 028°28'0 0.0
2018-Jan-12 12:29N 60°00' E 028°28'0 0.0
2018-Jan-12 11:59N 60°00' E 028°27'0 0.0
2018-Jan-12 11:29N 60°00' E 028°27'0 0.1
2018-Jan-12 10:59N 60°00' E 028°27'0 0.1
2018-Jan-12 10:29N 60°00' E 028°27'0 0.1
2018-Jan-12 10:00N 60°00' E 028°27'0 0.0
2018-Jan-12 09:29N 60°00' E 028°27'0 0.0
2018-Jan-12 08:59N 60°00' E 028°27'0 0.0
2018-Jan-12 08:30N 60°00' E 028°27'0 0.0
2018-Jan-12 08:00N 60°00' E 028°27'0 0.0
2018-Jan-12 07:30N 60°00' E 028°27'0 0.0
2018-Jan-12 07:00N 60°00' E 028°27'0 0.1
2018-Jan-12 06:29N 60°00' E 028°27'0 0.0
2018-Jan-12 06:00N 60°00' E 028°27'0 0.0
2018-Jan-12 05:30N 60°00' E 028°27'0 0.0
2018-Jan-12 04:58N 60°00' E 028°27'0 0.0
2018-Jan-12 04:29N 60°00' E 028°27'0 0.1
2018-Jan-12 03:56N 60°00' E 028°27'0 0.0
2018-Jan-12 03:30N 60°00' E 028°27'0 0.0
2018-Jan-12 03:00N 60°00' E 028°27'0 0.0
2018-Jan-12 02:29N 60°00' E 028°27'0 0.0
2018-Jan-12 02:00N 60°00' E 028°27'0 0.0
2018-Jan-12 01:29N 60°00' E 028°27'0 0.0
2018-Jan-12 00:59N 60°00' E 028°27'0 0.0
2018-Jan-12 00:29N 60°00' E 028°27'0 0.0
2018-Jan-11 23:59N 60°00' E 028°27'0 0.0
2018-Jan-11 23:29N 60°00' E 028°27'0 0.1
2018-Jan-11 23:00N 60°00' E 028°27'0 0.0
2018-Jan-11 22:29N 60°00' E 028°27'0 0.0
2018-Jan-11 21:59N 60°00' E 028°27'0 0.0
2018-Jan-11 21:29N 60°00' E 028°27'0 0.0
2018-Jan-11 21:00N 60°00' E 028°27'0 0.0
2018-Jan-11 20:29N 60°00' E 028°27'0 0.0
2018-Jan-11 19:59N 60°00' E 028°27'0 0.0
2018-Jan-11 19:29N 60°00' E 028°27'0 0.0
2018-Jan-11 18:59N 60°00' E 028°27'0 0.0
2018-Jan-11 18:30N 60°00' E 028°27'0 0.0
2018-Jan-11 17:58N 60°00' E 028°27'0 0.0
2018-Jan-11 17:30N 60°00' E 028°27'0 0.0
2018-Jan-11 16:58N 60°00' E 028°27'0 0.0
2018-Jan-11 16:29N 60°00' E 028°27'0 0.0
2018-Jan-11 16:00N 60°00' E 028°27'0 0.0
2018-Jan-11 15:29N 60°00' E 028°27'0 0.0
2018-Jan-11 15:00N 60°00' E 028°27'0 0.0
2018-Jan-11 14:30N 60°00' E 028°27'0 0.0
2018-Jan-11 13:57N 60°00' E 028°27'0 0.0
2018-Jan-11 13:28N 60°00' E 028°27'0 0.1
2018-Jan-11 13:00N 60°00' E 028°27'0 0.0
2018-Jan-11 12:26N 60°00' E 028°27'0 0.1
2018-Jan-11 11:57N 60°00' E 028°27'0 0.0
2018-Jan-11 11:26N 60°00' E 028°27'0 0.0
2018-Jan-11 10:59N 60°00' E 028°27'0 0.0
2018-Jan-11 10:30N 60°00' E 028°27'  
Track history (hours):
 
Tides and Currents Weather Stations Pressure Air Temp Water Temp Dewpoint Dewpoint Depression Visibility Wind Speed Wind Dir Waves Ship Positions

Solviken

Last reported at 2018-Jan-21 10:30 UTC. Time now 2018-Jan-21 10:40 UTC.
Position N 47°18' W 002°06'.

Length 249 m; draft 14 m.

Type: Tanker. MMSI: 258682000.

Date/timePositionNaut miles runAvg speedWind from/ knotsBaromVisibWave heightAir tempDewpointWater temp
2018-Jan-21 10:30N 47°18' W 002°06'0 0.0
2018-Jan-21 10:00N 47°18' W 002°06'0 0.0
2018-Jan-21 09:30N 47°18' W 002°06'0 0.0
2018-Jan-21 08:57N 47°18' W 002°06'0 0.0
2018-Jan-21 08:30N 47°18' W 002°06'0 0.0
2018-Jan-21 08:00N 47°18' W 002°06'0 0.0
2018-Jan-21 07:27N 47°18' W 002°06'0 0.0
2018-Jan-21 07:00N 47°18' W 002°06'0 0.2
2018-Jan-21 06:30N 47°18' W 002°06'1 2.6
2018-Jan-21 06:00N 47°18' W 002°08'4 8.7
2018-Jan-21 05:30N 47°15' W 002°13'611.3
2018-Jan-21 05:00N 47°11' W 002°18'4 8.7
2018-Jan-21 04:30N 47°07' W 002°23'3 5.3
2018-Jan-21 04:00N 47°06' W 002°26'4 7.6
2018-Jan-21 03:30N 47°04' W 002°30'4 8.6
2018-Jan-21 03:00N 47°03' W 002°36'3 5.7
2018-Jan-21 02:30N 47°01' W 002°40'611.8
2018-Jan-21 02:00N 47°02' W 002°48'3 1.0
2018-Jan-20 23:00N 46°59' W 002°50'0 0.8
2018-Jan-20 22:22N 46°59' W 002°50'9 1.2
2018-Jan-20 15:12N 47°02' W 002°38'2 7.4
2018-Jan-20 14:59N 47°01' W 002°40'812.9
2018-Jan-20 14:20N 47°04' W 002°51'413.3
2018-Jan-20 14:00N 47°05' W 002°57'713.4
2018-Jan-20 13:31N 47°08' W 003°06'713.3
2018-Jan-20 13:01N 47°10' W 003°15'713.2
2018-Jan-20 12:30N 47°13' W 003°24'713.1
2018-Jan-20 12:00N 47°15' W 003°34'613.0
2018-Jan-20 11:31N 47°17' W 003°42'712.9
2018-Jan-20 11:00N 47°20' W 003°51'712.9
2018-Jan-20 10:28N 47°22' W 004°01'4113.2
2018-Jan-20 07:24N 47°38' W 004°57'613.3
2018-Jan-20 06:58N 47°41' W 005°03'613.6
2018-Jan-20 06:30N 47°46' W 005°09'141 8.8
2018-Jan-19 14:31N 49°49' W 003°26'014.5
2018-Jan-19 14:30N 49°49' W 003°26'713.5
2018-Jan-19 14:00N 49°52' W 003°17'1014.2
2018-Jan-19 13:17N 49°57' W 003°03'414.1
2018-Jan-19 13:01N 49°59' W 002°57'713.6
2018-Jan-19 12:29N 50°01' W 002°47'713.0
2018-Jan-19 11:58N 50°03' W 002°37'612.2
2018-Jan-19 11:26N 50°05' W 002°27'8211.5
2018-Jan-19 04:18N 50°27' W 000°24'414.6
2018-Jan-19 04:00N 50°28' W 000°17'714.4
2018-Jan-19 03:30N 50°30' W 000°06'714.1
2018-Jan-19 03:00N 50°32' E 000°04'713.6
2018-Jan-19 02:31N 50°34' E 000°15'713.3
2018-Jan-19 02:00N 50°36' E 000°25'612.9
2018-Jan-19 01:31N 50°38' E 000°34'612.6
2018-Jan-19 01:00N 50°41' E 000°43'612.2
2018-Jan-19 00:31N 50°45' E 000°50'611.8
2018-Jan-19 00:00N 50°48' E 000°58'611.8
2018-Jan-18 23:31N 50°52' E 001°05'612.1
2018-Jan-18 23:00N 50°56' E 001°12'612.6
2018-Jan-18 22:30N 51°00' E 001°20'713.9
2018-Jan-18 22:00N 51°04' E 001°29'815.0
2018-Jan-18 21:30N 51°09' E 001°38'815.5
2018-Jan-18 21:00N 51°15' E 001°46'815.8
2018-Jan-18 20:31N 51°22' E 001°52'714.9
2018-Jan-18 20:00N 51°28' E 001°58'714.3
2018-Jan-18 19:31N 51°34' E 002°05'714.1
2018-Jan-18 19:00N 51°39' E 002°13'  
2018-Jan-12 14:59N 60°09' E 028°38'3 5.4
2018-Jan-12 14:30N 60°08' E 028°33'3 6.1
2018-Jan-12 14:00N 60°05' E 028°32'5 9.3
2018-Jan-12 13:30N 60°00' E 028°29'1 0.9
2018-Jan-12 12:58N 60°00' E 028°28'0 0.0
2018-Jan-12 12:29N 60°00' E 028°28'0 0.0
2018-Jan-12 11:59N 60°00' E 028°27'0 0.0
2018-Jan-12 11:29N 60°00' E 028°27'0 0.1
2018-Jan-12 10:59N 60°00' E 028°27'0 0.1
2018-Jan-12 10:29N 60°00' E 028°27'0 0.1
2018-Jan-12 10:00N 60°00' E 028°27'0 0.0
2018-Jan-12 09:29N 60°00' E 028°27'0 0.0
2018-Jan-12 08:59N 60°00' E 028°27'0 0.0
2018-Jan-12 08:30N 60°00' E 028°27'0 0.0
2018-Jan-12 08:00N 60°00' E 028°27'0 0.0
2018-Jan-12 07:30N 60°00' E 028°27'0 0.0
2018-Jan-12 07:00N 60°00' E 028°27'0 0.1
2018-Jan-12 06:29N 60°00' E 028°27'0 0.0
2018-Jan-12 06:00N 60°00' E 028°27'0 0.0
2018-Jan-12 05:30N 60°00' E 028°27'0 0.0
2018-Jan-12 04:58N 60°00' E 028°27'0 0.0
2018-Jan-12 04:29N 60°00' E 028°27'0 0.1
2018-Jan-12 03:56N 60°00' E 028°27'0 0.0
2018-Jan-12 03:30N 60°00' E 028°27'0 0.0
2018-Jan-12 03:00N 60°00' E 028°27'0 0.0
2018-Jan-12 02:29N 60°00' E 028°27'0 0.0
2018-Jan-12 02:00N 60°00' E 028°27'0 0.0
2018-Jan-12 01:29N 60°00' E 028°27'0 0.0
2018-Jan-12 00:59N 60°00' E 028°27'0 0.0
2018-Jan-12 00:29N 60°00' E 028°27'0 0.0
2018-Jan-11 23:59N 60°00' E 028°27'0 0.0
2018-Jan-11 23:29N 60°00' E 028°27'0 0.1
2018-Jan-11 23:00N 60°00' E 028°27'0 0.0
2018-Jan-11 22:29N 60°00' E 028°27'0 0.0
2018-Jan-11 21:59N 60°00' E 028°27'0 0.0
2018-Jan-11 21:29N 60°00' E 028°27'0 0.0
2018-Jan-11 21:00N 60°00' E 028°27'0 0.0
2018-Jan-11 20:29N 60°00' E 028°27'0 0.0
2018-Jan-11 19:59N 60°00' E 028°27'0 0.0
2018-Jan-11 19:29N 60°00' E 028°27'0 0.0
2018-Jan-11 18:59N 60°00' E 028°27'0 0.0
2018-Jan-11 18:30N 60°00' E 028°27'0 0.0
2018-Jan-11 17:58N 60°00' E 028°27'0 0.0
2018-Jan-11 17:30N 60°00' E 028°27'0 0.0
2018-Jan-11 16:58N 60°00' E 028°27'0 0.0
2018-Jan-11 16:29N 60°00' E 028°27'0 0.0
2018-Jan-11 16:00N 60°00' E 028°27'0 0.0
2018-Jan-11 15:29N 60°00' E 028°27'0 0.0
2018-Jan-11 15:00N 60°00' E 028°27'0 0.0
2018-Jan-11 14:30N 60°00' E 028°27'0 0.0
2018-Jan-11 13:57N 60°00' E 028°27'0 0.0
2018-Jan-11 13:28N 60°00' E 028°27'0 0.1
2018-Jan-11 13:00N 60°00' E 028°27'0 0.0
2018-Jan-11 12:26N 60°00' E 028°27'0 0.1
2018-Jan-11 11:57N 60°00' E 028°27'0 0.0
2018-Jan-11 11:26N 60°00' E 028°27'0 0.0
2018-Jan-11 10:59N 60°00' E 028°27'0 0.0
2018-Jan-11 10:30N 60°00' E 028°27'  

Dump ship's entire track history